Time;durP1;ratioP1;P1;durP2;ratioP2;P2;SDS_P1;SDS_P2;PMS_P1;PMS_P2;Temp;Humidity;BMP_temperature;BMP_pressure;BME280_temperature;BME280_humidity;BME280_pressure;Samples;Min_cycle;Max_cycle;Signal;HPM_P1;HPM_P2
2021/07/03 00:01:33;;;;;;;34.22;23.83;;;14.50;99.90;;;;;;12394313;28;20038;-39
2021/07/03 00:07:35;;;;;;;26.63;21.23;;;14.40;99.90;;;;;;12386113;28;20046;-40
2021/07/03 00:13:37;;;;;;;32.05;22.42;;;14.40;99.90;;;;;;12391148;28;20804;-41
2021/07/03 00:19:39;;;;;;;37.45;24.02;;;14.40;99.90;;;;;;12389708;28;20563;-40
2021/07/03 00:25:41;;;;;;;33.03;24.52;;;14.40;99.90;;;;;;12395326;28;20572;-41
2021/07/03 00:31:43;;;;;;;35.55;24.80;;;14.30;99.90;;;;;;12384920;28;20445;-40
2021/07/03 00:37:45;;;;;;;34.47;22.35;;;14.40;99.90;;;;;;12396310;28;20141;-40
2021/07/03 00:43:47;;;;;;;28.05;21.38;;;14.40;99.90;;;;;;12394168;28;20116;-41
2021/07/03 00:49:49;;;;;;;28.42;20.33;;;14.40;99.90;;;;;;12393491;28;20101;-41
2021/07/03 00:55:53;;;;;;;37.85;22.58;;;14.30;99.90;;;;;;12393031;28;20100;-40
2021/07/03 01:01:55;;;;;;;34.13;23.20;;;14.00;99.90;;;;;;12385306;28;20046;-41
2021/07/03 01:07:56;;;;;;;34.95;23.98;;;13.90;99.90;;;;;;12393529;28;20058;-41
2021/07/03 01:14:02;;;;;;;30.70;22.23;;;13.90;99.90;;;;;;12385312;28;20495;-40
2021/07/03 01:20:05;;;;;;;36.38;22.38;;;13.90;99.90;;;;;;12391948;28;20446;-41
2021/07/03 01:26:10;;;;;;;38.90;22.77;;;13.90;99.90;;;;;;12373569;28;20070;-40
2021/07/03 01:32:12;;;;;;;31.30;21.08;;;13.80;99.90;;;;;;12388316;28;20400;-41
2021/07/03 01:38:19;;;;;;;33.75;23.55;;;13.70;99.90;;;;;;12393116;28;20437;-40
2021/07/03 01:44:27;;;;;;;33.22;23.33;;;13.60;99.90;;;;;;12382679;28;20054;-41
2021/07/03 01:50:29;;;;;;;32.00;25.15;;;13.50;99.90;;;;;;12393320;28;20089;-40
2021/07/03 01:56:31;;;;;;;38.80;23.17;;;13.50;99.90;;;;;;12393945;28;20089;-40
2021/07/03 02:02:32;;;;;;;34.88;22.42;;;13.40;99.90;;;;;;12389033;28;20038;-40
2021/07/03 02:08:35;;;;;;;30.77;22.55;;;13.20;99.90;;;;;;12389689;28;20049;-41
2021/07/03 02:14:36;;;;;;;31.85;22.38;;;13.30;99.90;;;;;;12385900;28;20092;-42
2021/07/03 02:20:39;;;;;;;32.28;22.67;;;13.20;99.90;;;;;;12392546;28;20100;-40
2021/07/03 02:26:40;;;;;;;42.35;24.55;;;13.30;99.90;;;;;;12384904;28;20042;-40
2021/07/03 02:32:43;;;;;;;31.80;22.38;;;13.20;99.90;;;;;;12389691;28;20050;-40
2021/07/03 02:38:44;;;;;;;28.45;21.33;;;13.30;99.90;;;;;;12398420;28;20046;-40
2021/07/03 02:44:46;;;;;;;30.17;20.75;;;13.20;99.90;;;;;;12398456;28;20046;-42
2021/07/03 02:50:48;;;;;;;26.58;20.02;;;13.20;99.90;;;;;;12395008;28;20046;-39
2021/07/03 02:56:50;;;;;;;29.45;19.23;;;13.10;99.90;;;;;;12394366;28;20058;-41
2021/07/03 03:02:52;;;;;;;29.05;19.42;;;13.20;99.90;;;;;;12396039;28;20525;-40
2021/07/03 03:08:53;;;;;;;33.83;21.08;;;13.10;99.90;;;;;;12400711;28;20046;-40
2021/07/03 03:14:55;;;;;;;35.88;20.33;;;13.20;99.90;;;;;;12396441;28;20143;-40
2021/07/03 03:20:57;;;;;;;41.53;19.52;;;13.20;99.90;;;;;;12402980;28;20042;-42
2021/07/03 03:26:59;;;;;;;34.72;20.75;;;13.20;99.90;;;;;;12393881;28;20104;-40
2021/07/03 03:33:00;;;;;;;35.78;21.15;;;13.20;99.90;;;;;;12397302;28;20058;-40
2021/07/03 03:39:04;;;;;;;34.30;20.17;;;13.10;99.90;;;;;;12390796;28;20078;-40
2021/07/03 03:45:07;;;;;;;27.70;20.20;;;13.00;99.90;;;;;;12394011;28;20563;-40
2021/07/03 03:51:09;;;;;;;31.58;21.90;;;13.00;99.90;;;;;;12397506;28;20556;-40
2021/07/03 03:57:24;;;;;;;34.83;24.13;;;12.90;99.90;;;;;;12395390;28;20104;-41
2021/07/03 04:03:25;;;;;;;31.13;23.30;;;13.00;99.90;;;;;;12393811;28;20050;-42
2021/07/03 04:09:27;;;;;;;34.58;26.90;;;13.00;99.90;;;;;;12399444;28;20103;-40
2021/07/03 04:15:29;;;;;;;32.92;24.25;;;13.00;99.90;;;;;;12393853;28;20107;-40
2021/07/03 04:21:31;;;;;;;34.58;23.70;;;13.20;99.90;;;;;;12392664;28;20095;-40
2021/07/03 04:27:34;;;;;;;37.67;26.45;;;13.20;99.90;;;;;;12389196;28;20107;-40
2021/07/03 04:33:36;;;;;;;40.85;26.73;;;13.20;99.90;;;;;;12388305;28;20054;-41
2021/07/03 04:39:38;;;;;;;45.95;28.60;;;13.30;99.90;;;;;;12389613;28;20046;-40
2021/07/03 04:45:40;;;;;;;41.20;28.85;;;13.40;99.90;;;;;;12388691;28;20053;-40
2021/07/03 04:51:42;;;;;;;43.08;29.30;;;13.60;99.90;;;;;;12391959;28;20563;-41
2021/07/03 04:57:44;;;;;;;35.38;26.30;;;13.70;99.90;;;;;;12391229;28;20046;-41
2021/07/03 05:03:46;;;;;;;33.55;24.75;;;13.70;99.90;;;;;;12392313;28;20050;-40
2021/07/03 05:09:48;;;;;;;28.90;23.50;;;13.60;99.90;;;;;;12389656;28;20510;-40
2021/07/03 05:15:49;;;;;;;26.90;23.02;;;13.50;99.90;;;;;;12391459;28;20695;-40
2021/07/03 05:21:51;;;;;;;26.13;21.95;;;13.70;99.90;;;;;;12390911;28;20133;-40
2021/07/03 05:27:53;;;;;;;29.15;23.30;;;13.70;99.90;;;;;;12398469;28;21052;-40
2021/07/03 05:33:56;;;;;;;33.20;24.05;;;13.90;99.90;;;;;;12391957;28;20046;-42
2021/07/03 05:39:58;;;;;;;30.15;23.45;;;13.90;99.90;;;;;;12397536;28;20053;-41
2021/07/03 05:45:59;;;;;;;32.58;25.50;;;14.00;99.90;;;;;;12389042;28;20062;-40
2021/07/03 05:52:01;;;;;;;35.08;26.23;;;14.20;99.90;;;;;;12391059;28;20057;-40
2021/07/03 05:58:03;;;;;;;30.95;24.75;;;14.40;99.90;;;;;;12392008;28;20108;-40
2021/07/03 06:04:05;;;;;;;29.08;23.92;;;14.40;99.90;;;;;;12387099;28;20050;-40
2021/07/03 06:10:08;;;;;;;31.85;23.00;;;14.60;99.90;;;;;;12386522;28;20046;-41
2021/07/03 06:16:10;;;;;;;29.55;23.63;;;14.70;99.90;;;;;;12394016;28;20103;-40
2021/07/03 06:22:13;;;;;;;32.80;23.08;;;14.80;99.90;;;;;;12392456;28;20041;-41
2021/07/03 06:28:15;;;;;;;27.00;21.02;;;14.80;99.90;;;;;;12399307;28;20046;-40
2021/07/03 06:34:17;;;;;;;24.70;19.92;;;15.00;99.90;;;;;;12391335;28;20042;-41
2021/07/03 06:40:19;;;;;;;19.98;17.83;;;15.20;99.90;;;;;;12399632;28;20409;-40
2021/07/03 06:46:22;;;;;;;22.88;18.83;;;15.20;99.90;;;;;;12398677;28;20107;-41
2021/07/03 06:52:24;;;;;;;24.38;18.58;;;15.30;99.90;;;;;;12387125;28;20096;-41
2021/07/03 06:58:25;;;;;;;21.13;18.80;;;15.40;99.90;;;;;;12396205;28;20164;-41
2021/07/03 07:04:27;;;;;;;28.50;18.90;;;15.60;99.90;;;;;;12387621;28;20439;-41
2021/07/03 07:10:29;;;;;;;21.48;17.63;;;15.70;99.90;;;;;;12391708;28;20053;-44
2021/07/03 07:16:31;;;;;;;23.90;19.80;;;15.80;99.90;;;;;;12391792;28;20049;-42
2021/07/03 07:22:33;;;;;;;24.42;19.70;;;16.00;99.90;;;;;;12389332;28;20050;-43
2021/07/03 07:28:34;;;;;;;25.42;19.75;;;16.00;99.90;;;;;;12392224;28;20461;-41
2021/07/03 07:34:36;;;;;;;30.77;21.63;;;16.40;99.90;;;;;;12396232;28;20054;-41
2021/07/03 07:40:38;;;;;;;35.05;22.10;;;16.50;99.90;;;;;;12390458;28;20104;-43
2021/07/03 07:46:40;;;;;;;29.02;21.95;;;16.50;99.90;;;;;;12381650;28;20437;-40
2021/07/03 07:52:42;;;;;;;34.40;22.85;;;16.80;99.90;;;;;;12385766;28;20533;-41
2021/07/03 07:58:48;;;;;;;34.22;23.77;;;17.10;99.90;;;;;;12397141;28;20104;-44
2021/07/03 08:04:50;;;;;;;28.98;21.08;;;17.30;99.90;;;;;;12393958;28;20045;-41
2021/07/03 08:10:52;;;;;;;30.83;23.40;;;17.30;99.90;;;;;;12390405;28;20062;-40
2021/07/03 08:16:53;;;;;;;30.85;22.55;;;17.60;99.90;;;;;;12386954;28;20593;-40
2021/07/03 08:22:56;;;;;;;27.17;21.70;;;17.70;99.90;;;;;;12391964;28;20512;-40
2021/07/03 08:28:58;;;;;;;30.65;21.30;;;17.90;99.90;;;;;;12392640;28;20471;-40
2021/07/03 08:35:00;;;;;;;30.95;21.00;;;18.10;99.90;;;;;;12383886;28;20794;-41
2021/07/03 08:41:02;;;;;;;24.48;17.85;;;18.40;99.90;;;;;;12389110;28;20042;-40
2021/07/03 08:47:07;;;;;;;24.23;18.20;;;18.50;99.90;;;;;;12386184;28;20054;-40
2021/07/03 08:53:09;;;;;;;27.90;16.55;;;18.70;99.90;;;;;;12388863;28;20049;-43
2021/07/03 08:59:15;;;;;;;23.88;16.92;;;19.00;99.90;;;;;;12392899;28;20058;-41
2021/07/03 09:05:21;;;;;;;19.83;15.13;;;19.20;99.90;;;;;;12386300;28;20112;-41
2021/07/03 09:11:23;;;;;;;19.48;15.55;;;19.10;99.90;;;;;;12389099;28;20126;-41
2021/07/03 09:17:25;;;;;;;19.20;14.18;;;19.30;99.90;;;;;;12379577;28;20050;-41
2021/07/03 09:23:35;;;;;;;20.33;13.32;;;19.60;99.90;;;;;;12380795;28;20050;-40
2021/07/03 09:29:49;;;;;;;16.30;12.20;;;19.80;99.90;;;;;;12385873;28;20042;-41
2021/07/03 09:36:03;;;;;;;13.77;11.02;;;20.20;99.90;;;;;;12391802;28;20562;-42
2021/07/03 09:42:15;;;;;;;14.77;9.98;;;20.30;99.90;;;;;;12377851;28;20068;-41
2021/07/03 09:48:16;;;;;;;14.13;9.70;;;20.40;99.90;;;;;;12386216;28;20104;-41
2021/07/03 09:54:21;;;;;;;13.05;8.30;;;20.60;99.90;;;;;;12391933;28;20057;-43
2021/07/03 10:00:23;;;;;;;16.00;9.32;;;21.00;99.90;;;;;;12395217;28;20045;-42
2021/07/03 10:06:41;;;;;;;13.35;7.28;;;21.40;99.90;;;;;;12391239;28;20303;-41
2021/07/03 10:12:49;;;;;;;16.63;9.32;;;20.90;99.90;;;;;;12391370;28;20123;-41
2021/07/03 10:18:51;;;;;;;16.00;9.15;;;20.70;99.90;;;;;;12395607;28;20532;-41
2021/07/03 10:24:55;;;;;;;10.73;7.22;;;20.70;99.90;;;;;;12387993;28;20087;-41
2021/07/03 10:31:04;;;;;;;10.85;8.35;;;20.70;99.90;;;;;;12391158;28;20399;-43
2021/07/03 10:37:05;;;;;;;15.73;8.85;;;20.50;99.90;;;;;;12390680;28;20054;-42
2021/07/03 10:43:11;;;;;;;13.02;8.75;;;20.80;99.90;;;;;;12390158;28;20058;-40
2021/07/03 10:49:28;;;;;;;10.93;7.53;;;21.00;99.90;;;;;;12387045;28;20457;-42
2021/07/03 10:55:35;;;;;;;8.60;5.97;;;21.40;99.90;;;;;;12392886;28;20046;-41
2021/07/03 11:01:37;;;;;;;8.52;5.30;;;22.00;99.90;;;;;;12387311;28;20054;-41
2021/07/03 11:07:43;;;;;;;9.77;6.70;;;22.60;99.90;;;;;;12393229;28;20050;-42
2021/07/03 11:13:47;;;;;;;9.85;6.45;;;23.00;99.90;;;;;;12389712;28;20301;-43
2021/07/03 11:19:52;;;;;;;10.98;7.32;;;23.10;99.90;;;;;;12390589;28;20061;-41
2021/07/03 11:25:54;;;;;;;8.50;6.40;;;23.00;99.90;;;;;;12385760;28;20123;-44
2021/07/03 11:32:03;;;;;;;9.95;6.45;;;23.10;99.90;;;;;;12391872;28;20054;-41
2021/07/03 11:38:05;;;;;;;7.78;5.97;;;23.00;99.90;;;;;;12387145;28;20723;-41
2021/07/03 11:44:08;;;;;;;7.60;5.60;;;23.60;99.90;;;;;;12386420;28;20171;-43
2021/07/03 11:50:32;;;;;;;9.98;6.00;;;23.70;99.90;;;;;;12384129;28;20101;-41
2021/07/03 11:56:34;;;;;;;8.32;5.38;;;24.00;99.90;;;;;;12381836;28;20059;-42
2021/07/03 12:02:37;;;;;;;6.70;5.13;;;24.10;99.90;;;;;;12386779;28;20077;-42
2021/07/03 12:08:46;;;;;;;9.13;6.07;;;23.70;99.90;;;;;;12382750;28;20662;-42
2021/07/03 12:15:08;;;;;;;8.27;5.68;;;23.60;99.90;;;;;;12388806;28;20046;-41
2021/07/03 12:21:14;;;;;;;8.73;5.00;;;23.20;99.90;;;;;;12381993;28;20108;-43
2021/07/03 12:27:23;;;;;;;10.02;5.30;;;23.60;99.90;;;;;;12384435;28;20095;-41
2021/07/03 12:33:26;;;;;;;6.53;4.60;;;24.30;99.90;;;;;;12382934;28;20435;-42
2021/07/03 12:39:29;;;;;;;5.38;4.63;;;24.60;99.90;;;;;;12385649;28;20400;-40
2021/07/03 12:45:31;;;;;;;9.93;5.40;;;25.00;99.90;;;;;;12388806;28;20085;-41
2021/07/03 12:51:36;;;;;;;9.43;5.30;;;24.70;99.90;;;;;;12380856;28;20054;-42
2021/07/03 12:57:38;;;;;;;6.80;4.97;;;24.20;99.90;;;;;;12386031;28;20367;-43
2021/07/03 13:03:40;;;;;;;8.10;4.90;;;24.70;99.90;;;;;;12379087;28;20058;-41
2021/07/03 13:09:42;;;;;;;8.07;4.90;;;24.90;99.90;;;;;;12386877;28;20479;-42
2021/07/03 13:15:44;;;;;;;7.45;4.75;;;24.60;99.90;;;;;;12380779;28;20050;-41
2021/07/03 13:21:46;;;;;;;8.20;4.57;;;24.80;99.90;;;;;;12381176;28;20061;-42
2021/07/03 13:27:48;;;;;;;7.05;4.45;;;25.20;99.90;;;;;;12377884;28;20089;-42
2021/07/03 13:33:50;;;;;;;5.95;4.00;;;25.30;99.90;;;;;;12384415;28;20046;-42
2021/07/03 13:39:51;;;;;;;8.15;3.92;;;25.40;99.90;;;;;;12386544;28;20108;-41
2021/07/03 13:45:53;;;;;;;4.97;3.13;;;25.60;99.90;;;;;;12383984;28;20077;-41
2021/07/03 13:51:55;;;;;;;4.50;3.30;;;25.70;99.90;;;;;;12376804;28;20128;-43
2021/07/03 13:57:57;;;;;;;4.97;3.30;;;25.70;99.90;;;;;;12384143;28;20054;-43
2021/07/03 14:04:01;;;;;;;9.00;3.93;;;25.80;99.90;;;;;;12377052;28;20136;-40
2021/07/03 14:10:07;;;;;;;6.55;3.53;;;25.00;99.90;;;;;;12386823;28;20050;-41
2021/07/03 14:16:08;;;;;;;4.55;3.33;;;24.90;99.90;;;;;;12383306;28;20058;-41
2021/07/03 14:22:10;;;;;;;6.80;3.50;;;25.40;99.90;;;;;;12383305;28;20482;-41
2021/07/03 14:28:12;;;;;;;4.78;3.30;;;25.70;99.90;;;;;;12380259;28;20053;-41
2021/07/03 14:34:15;;;;;;;4.35;3.20;;;25.50;99.90;;;;;;12380430;28;20827;-41
2021/07/03 14:40:17;;;;;;;5.53;3.65;;;25.00;99.90;;;;;;12389683;28;20046;-41
2021/07/03 14:46:19;;;;;;;5.53;3.90;;;24.30;99.90;;;;;;12394398;28;20094;-40
2021/07/03 14:52:21;;;;;;;5.30;3.22;;;24.00;99.90;;;;;;12397210;28;20149;-41
2021/07/03 14:58:22;;;;;;;7.05;3.67;;;23.90;99.90;;;;;;12398023;28;20602;-41
2021/07/03 15:04:24;;;;;;;7.03;3.17;;;24.00;99.90;;;;;;12386339;28;20088;-41
2021/07/03 15:10:27;;;;;;;4.85;2.88;;;24.70;99.90;;;;;;12390675;28;20510;-41
2021/07/03 15:16:29;;;;;;;4.03;2.92;;;25.30;99.90;;;;;;12396041;28;20120;-41
2021/07/03 15:22:31;;;;;;;5.77;2.97;;;25.60;99.90;;;;;;12379829;28;20372;-41
2021/07/03 15:28:33;;;;;;;4.30;2.97;;;25.90;99.90;;;;;;12390407;28;20045;-42
2021/07/03 15:34:35;;;;;;;4.65;3.08;;;26.10;99.90;;;;;;12385802;28;20060;-42
2021/07/03 15:40:37;;;;;;;4.93;3.13;;;26.20;99.90;;;;;;12386234;28;20411;-42
2021/07/03 15:46:39;;;;;;;4.97;3.07;;;26.00;99.90;;;;;;12385938;28;20985;-42
2021/07/03 15:52:42;;;;;;;4.00;3.10;;;26.30;99.90;;;;;;12384270;28;20304;-41
2021/07/03 15:58:45;;;;;;;5.75;3.42;;;26.30;99.90;;;;;;12389579;28;20054;-41
2021/07/03 16:04:46;;;;;;;4.28;3.03;;;25.40;99.90;;;;;;12386139;28;20054;-41
2021/07/03 16:10:48;;;;;;;4.30;3.03;;;24.50;99.90;;;;;;12386391;28;20065;-41
2021/07/03 16:16:50;;;;;;;6.03;3.17;;;24.60;99.90;;;;;;12385770;28;20115;-43
2021/07/03 16:22:52;;;;;;;5.03;3.30;;;24.70;99.90;;;;;;12384155;28;20115;-40
2021/07/03 16:29:09;;;;;;;3.40;2.78;;;24.40;99.90;;;;;;12380902;28;20498;-41
2021/07/03 16:35:13;;;;;;;6.68;3.22;;;24.60;99.90;;;;;;12385766;28;20450;-42
2021/07/03 16:41:19;;;;;;;4.03;2.90;;;25.20;99.90;;;;;;12387968;28;20136;-41
2021/07/03 16:47:21;;;;;;;5.60;3.08;;;25.60;99.90;;;;;;12389692;28;20529;-41
2021/07/03 16:53:23;;;;;;;4.72;3.20;;;25.90;99.90;;;;;;12392690;28;20572;-41
2021/07/03 16:59:25;;;;;;;5.35;3.30;;;26.30;99.90;;;;;;12388325;28;20058;-41
2021/07/03 17:05:27;;;;;;;4.13;3.00;;;26.30;99.90;;;;;;12387781;28;20105;-42
2021/07/03 17:11:29;;;;;;;5.78;2.80;;;26.20;99.90;;;;;;12390794;28;20109;-41
2021/07/03 17:17:32;;;;;;;4.07;3.17;;;26.40;99.90;;;;;;12387335;28;20101;-42
2021/07/03 17:23:34;;;;;;;4.30;3.00;;;26.80;99.90;;;;;;12387690;28;20054;-43
2021/07/03 17:29:36;;;;;;;4.18;3.08;;;26.90;99.90;;;;;;12389376;28;20096;-42
2021/07/03 17:35:38;;;;;;;5.05;3.22;;;27.00;99.90;;;;;;12387625;28;20076;-41
2021/07/03 17:41:40;;;;;;;4.95;3.30;;;26.80;99.90;;;;;;12379770;28;20189;-41
2021/07/03 17:47:42;;;;;;;6.25;3.33;;;26.50;99.90;;;;;;12377251;28;20132;-43
2021/07/03 17:53:44;;;;;;;4.10;3.10;;;26.10;99.90;;;;;;12378706;28;20050;-41
2021/07/03 17:59:45;;;;;;;9.13;3.83;;;26.10;99.90;;;;;;12370993;28;20058;-41
2021/07/03 18:05:47;;;;;;;4.70;3.15;;;26.40;99.90;;;;;;12380720;28;20050;-41
2021/07/03 18:11:50;;;;;;;5.57;3.30;;;26.60;99.90;;;;;;12389771;28;20112;-41
2021/07/03 18:17:52;;;;;;;4.20;2.97;;;26.40;99.90;;;;;;12390182;28;20149;-41
2021/07/03 18:23:54;;;;;;;3.85;3.00;;;25.40;99.90;;;;;;12390692;28;20054;-41
2021/07/03 18:29:55;;;;;;;6.35;3.10;;;24.60;99.90;;;;;;12390763;28;20169;-41
2021/07/03 18:35:57;;;;;;;4.68;3.15;;;24.00;99.90;;;;;;12391131;28;20100;-43
2021/07/03 18:41:59;;;;;;;5.50;3.50;;;23.40;99.90;;;;;;12395748;28;20042;-41
2021/07/03 18:48:01;;;;;;;4.95;3.33;;;23.10;99.90;;;;;;12396635;28;20429;-41
2021/07/03 18:54:03;;;;;;;5.45;3.70;;;22.60;99.90;;;;;;12394843;28;20560;-40
2021/07/03 19:00:08;;;;;;;5.90;3.30;;;22.20;99.90;;;;;;12394380;28;20054;-41
2021/07/03 19:06:10;;;;;;;7.35;3.70;;;22.10;99.90;;;;;;12396438;28;20112;-40
2021/07/03 19:12:12;;;;;;;5.40;3.70;;;21.70;99.90;;;;;;12389905;28;20469;-40
2021/07/03 19:18:16;;;;;;;6.18;3.35;;;21.80;99.90;;;;;;12394642;28;20109;-40
2021/07/03 19:24:19;;;;;;;4.97;3.70;;;21.60;99.90;;;;;;12384992;28;20133;-40
2021/07/03 19:30:21;;;;;;;7.50;3.80;;;21.60;99.90;;;;;;12386042;28;20058;-41
2021/07/03 19:36:22;;;;;;;6.95;4.32;;;21.40;99.90;;;;;;12384491;28;20054;-41
2021/07/03 19:42:25;;;;;;;6.68;4.35;;;21.10;99.90;;;;;;12386893;28;20107;-41
2021/07/03 19:48:28;;;;;;;6.90;4.20;;;20.80;99.90;;;;;;12391974;28;20099;-41
2021/07/03 19:54:30;;;;;;;7.73;4.13;;;20.80;99.90;;;;;;12396107;28;20482;-41
2021/07/03 20:00:32;;;;;;;5.53;4.32;;;20.40;99.90;;;;;;12388742;28;24214;-41
2021/07/03 20:06:34;;;;;;;6.20;4.53;;;20.40;99.90;;;;;;12391892;28;20589;-41
2021/07/03 20:12:36;;;;;;;4.90;4.30;;;20.20;99.90;;;;;;12385432;28;20046;-41
2021/07/03 20:18:39;;;;;;;5.87;4.77;;;20.10;99.90;;;;;;12389129;28;20074;-41
2021/07/03 20:24:40;;;;;;;6.57;4.95;;;19.90;99.90;;;;;;12391000;28;20091;-41
2021/07/03 20:30:43;;;;;;;8.27;5.10;;;19.80;99.90;;;;;;12394643;28;20050;-40
2021/07/03 20:36:45;;;;;;;5.90;5.10;;;19.80;99.90;;;;;;12388377;28;20108;-41
2021/07/03 20:42:48;;;;;;;9.95;5.03;;;19.70;99.90;;;;;;12383246;28;20469;-41
2021/07/03 20:48:50;;;;;;;8.15;5.03;;;19.60;99.90;;;;;;12388128;28;20096;-41
2021/07/03 20:54:51;;;;;;;6.80;5.43;;;19.50;99.90;;;;;;12387248;28;20076;-40
2021/07/03 21:00:54;;;;;;;8.82;4.90;;;19.50;99.90;;;;;;12378137;28;20054;-40
2021/07/03 21:06:56;;;;;;;7.72;4.55;;;19.40;99.90;;;;;;12397789;28;20058;-41
2021/07/03 21:12:58;;;;;;;6.85;5.00;;;19.30;99.90;;;;;;12377210;28;20133;-41
2021/07/03 21:19:00;;;;;;;5.75;4.47;;;19.30;99.90;;;;;;12384665;28;20061;-40
2021/07/03 21:25:06;;;;;;;5.22;4.72;;;19.30;99.90;;;;;;12381961;28;20556;-39
2021/07/03 21:31:08;;;;;;;6.93;4.82;;;19.20;99.90;;;;;;12382472;28;20050;-41
2021/07/03 21:37:10;;;;;;;5.40;4.70;;;19.10;99.90;;;;;;12393363;28;20127;-40
2021/07/03 21:43:12;;;;;;;6.63;5.20;;;19.00;99.90;;;;;;12384609;28;20876;-43
2021/07/03 21:49:13;;;;;;;6.75;5.10;;;19.00;99.90;;;;;;12388291;28;20103;-41
2021/07/03 21:55:15;;;;;;;7.60;5.07;;;18.90;99.90;;;;;;12388725;28;20054;-40
2021/07/03 22:01:17;;;;;;;8.02;4.93;;;18.80;99.90;;;;;;12390657;28;20065;-40
2021/07/03 22:07:19;;;;;;;6.63;4.85;;;18.80;99.90;;;;;;12383732;28;20050;-42
2021/07/03 22:13:23;;;;;;;6.88;4.68;;;18.70;99.90;;;;;;12386397;28;20050;-41
2021/07/03 22:19:25;;;;;;;7.75;5.03;;;18.70;99.90;;;;;;12385930;28;20398;-41
2021/07/03 22:25:27;;;;;;;6.43;4.93;;;18.70;99.90;;;;;;12380562;28;20045;-41
2021/07/03 22:31:29;;;;;;;6.75;5.28;;;18.70;99.90;;;;;;12386580;28;20374;-41
2021/07/03 22:37:31;;;;;;;5.60;4.60;;;18.60;99.90;;;;;;12381202;28;20053;-41
2021/07/03 22:43:33;;;;;;;7.78;5.10;;;18.60;99.90;;;;;;12375792;28;20107;-40
2021/07/03 22:49:35;;;;;;;7.60;5.00;;;18.60;99.90;;;;;;12387621;28;20054;-40
2021/07/03 22:55:37;;;;;;;6.80;4.97;;;18.50;99.90;;;;;;12386508;28;20561;-39
2021/07/03 23:01:39;;;;;;;5.93;4.85;;;18.40;99.90;;;;;;12386443;28;20053;-41
2021/07/03 23:07:42;;;;;;;8.70;5.47;;;18.30;99.90;;;;;;12392261;28;20050;-40
2021/07/03 23:13:44;;;;;;;5.47;4.57;;;18.20;99.90;;;;;;12396578;28;20116;-40
2021/07/03 23:19:46;;;;;;;6.78;5.30;;;18.10;99.90;;;;;;12396357;28;20138;-40
2021/07/03 23:25:49;;;;;;;7.70;5.55;;;18.20;99.90;;;;;;12388928;28;20888;-40
2021/07/03 23:31:51;;;;;;;7.63;5.80;;;18.30;99.90;;;;;;12389704;28;20054;-40
2021/07/03 23:37:54;;;;;;;10.02;6.22;;;18.40;99.90;;;;;;12394791;28;20053;-41
2021/07/03 23:43:56;;;;;;;8.87;6.70;;;18.40;99.90;;;;;;12383742;28;20058;-40
2021/07/03 23:49:58;;;;;;;10.63;6.90;;;18.40;99.90;;;;;;12391335;28;20104;-40
2021/07/03 23:56:00;;;;;;;9.23;7.25;;;18.40;99.90;;;;;;12383142;28;20100;-40
